sensor_id;sensor_type;location;lat;lon;timestamp;pressure;altitude;pressure_sealevel;temperature;humidity
45113;BME280;30873;53.908;27.576;2022-11-15T00:04:05;1023.6;;;5.7;69.8
45113;BME280;30873;53.908;27.576;2022-11-15T00:09:15;1023.5;;;5.7;69.4
45113;BME280;30873;53.908;27.576;2022-11-15T00:14:33;1023.4;;;5.8;69.8
45113;BME280;30873;53.908;27.576;2022-11-15T00:19:17;1023.3;;;5.8;69.3
45113;BME280;30873;53.908;27.576;2022-11-15T00:24:47;1023.2;;;5.7;69.4
45113;BME280;30873;53.908;27.576;2022-11-15T00:28:59;1023.1;;;5.6;69.7
45113;BME280;30873;53.908;27.576;2022-11-15T00:34:31;1023.1;;;5.5;69.9
45113;BME280;30873;53.908;27.576;2022-11-15T00:39:29;1023.1;;;5.5;69.7
45113;BME280;30873;53.908;27.576;2022-11-15T00:44:33;1023;;;5.4;69.9
45113;BME280;30873;53.908;27.576;2022-11-15T00:49:33;1022.9;;;5.6;69.9
45113;BME280;30873;53.908;27.576;2022-11-15T00:54:05;1022.7;;;5.5;70.3
45113;BME280;30873;53.908;27.576;2022-11-15T00:59:45;1022.6;;;5.5;70.6
45113;BME280;30873;53.908;27.576;2022-11-15T01:03:59;1022.5;;;5.5;70.2
45113;BME280;30873;53.908;27.576;2022-11-15T01:09:27;1022.6;;;5.4;70.3
45113;BME280;30873;53.908;27.576;2022-11-15T01:14:21;1022.5;;;5.5;70.5
45113;BME280;30873;53.908;27.576;2022-11-15T01:18:59;1022.5;;;5.6;70.5
45113;BME280;30873;53.908;27.576;2022-11-15T01:24:05;1022.5;;;5.5;71
45113;BME280;30873;53.908;27.576;2022-11-15T01:29:35;1022.4;;;5.5;70.8
45113;BME280;30873;53.908;27.576;2022-11-15T01:34:21;1022.4;;;5.3;70.4
45113;BME280;30873;53.908;27.576;2022-11-15T01:39:51;1022.2;;;5.2;71.1
45113;BME280;30873;53.908;27.576;2022-11-15T01:44:49;1022;;;5.2;71.3
45113;BME280;30873;53.908;27.576;2022-11-15T01:49:37;1021.9;;;5.2;71.6
45113;BME280;30873;53.908;27.576;2022-11-15T01:54:31;1021.9;;;5.3;71.5
45113;BME280;30873;53.908;27.576;2022-11-15T01:59:35;1021.8;;;5.2;71.7
45113;BME280;30873;53.908;27.576;2022-11-15T02:04:51;1021.8;;;5.2;71.5
45113;BME280;30873;53.908;27.576;2022-11-15T02:08:59;1021.8;;;5;71.4
45113;BME280;30873;53.908;27.576;2022-11-15T02:14:49;1021.8;;;4.8;71.9
45113;BME280;30873;53.908;27.576;2022-11-15T02:19:00;1021.7;;;4.7;72.2
45113;BME280;30873;53.908;27.576;2022-11-15T02:24:44;1021.6;;;4.7;72.2
45113;BME280;30873;53.908;27.576;2022-11-15T02:29:15;1021.5;;;4.9;72.3
45113;BME280;30873;53.908;27.576;2022-11-15T02:34:00;1021.4;;;4.9;72.1
45113;BME280;30873;53.908;27.576;2022-11-15T02:39:18;1021.4;;;5;72.2
45113;BME280;30873;53.908;27.576;2022-11-15T02:44:40;1021.4;;;5;72.3
45113;BME280;30873;53.908;27.576;2022-11-15T02:49:21;1021.4;;;4.9;72.1
45113;BME280;30873;53.908;27.576;2022-11-15T02:54:52;1021.3;;;4.7;72.4
45113;BME280;30873;53.908;27.576;2022-11-15T02:59:20;1021.3;;;4.7;72.8
45113;BME280;30873;53.908;27.576;2022-11-15T03:04:51;1021.3;;;4.6;73.1
45113;BME280;30873;53.908;27.576;2022-11-15T03:09:50;1021.2;;;4.7;73.9
45113;BME280;30873;53.908;27.576;2022-11-15T03:14:37;1021.2;;;4.6;73.5
45113;BME280;30873;53.908;27.576;2022-11-15T03:19:38;1021.1;;;4.6;73.7
45113;BME280;30873;53.908;27.576;2022-11-15T03:24:09;1021.1;;;4.7;74.3
45113;BME280;30873;53.908;27.576;2022-11-15T03:29:48;1021.1;;;4.7;74
45113;BME280;30873;53.908;27.576;2022-11-15T03:34:51;1021;;;4.6;73.6
45113;BME280;30873;53.908;27.576;2022-11-15T03:39:33;1021;;;4.4;73.5
45113;BME280;30873;53.908;27.576;2022-11-15T03:44:10;1020.9;;;4.2;73.8
45113;BME280;30873;53.908;27.576;2022-11-15T03:49:08;1020.8;;;4.2;74.5
45113;BME280;30873;53.908;27.576;2022-11-15T03:54:17;1020.8;;;4.4;74.5
45113;BME280;30873;53.908;27.576;2022-11-15T03:59:47;1020.7;;;4.5;74
45113;BME280;30873;53.908;27.576;2022-11-15T04:04:09;1020.6;;;4.5;73.9
45113;BME280;30873;53.908;27.576;2022-11-15T04:09:49;1020.6;;;4.2;73.5
45113;BME280;30873;53.908;27.576;2022-11-15T04:13:59;1020.6;;;4.1;74.3
45113;BME280;30873;53.908;27.576;2022-11-15T04:19:31;1020.4;;;4.3;73.9
45113;BME280;30873;53.908;27.576;2022-11-15T04:24:15;1020.2;;;4.2;73.7
45113;BME280;30873;53.908;27.576;2022-11-15T04:29:37;1020.2;;;4.1;74.3
45113;BME280;30873;53.908;27.576;2022-11-15T04:34:35;1020.1;;;4.2;74.4
45113;BME280;30873;53.908;27.576;2022-11-15T04:39:23;1020;;;4.1;73.7
45113;BME280;30873;53.908;27.576;2022-11-15T04:44:49;1019.9;;;4.3;73.5
45113;BME280;30873;53.908;27.576;2022-11-15T04:49:35;1019.8;;;4.3;73.2
45113;BME280;30873;53.908;27.576;2022-11-15T04:54:29;1019.6;;;4.4;73.2
45113;BME280;30873;53.908;27.576;2022-11-15T04:59:21;1019.5;;;4.5;72.9
45113;BME280;30873;53.908;27.576;2022-11-15T05:04:09;1019.4;;;4.6;72.7
45113;BME280;30873;53.908;27.576;2022-11-15T05:09:19;1019.5;;;4.5;72.7
45113;BME280;30873;53.908;27.576;2022-11-15T05:14:47;1019.4;;;4.6;73.1
45113;BME280;30873;53.908;27.576;2022-11-15T05:19:19;1019.3;;;4.5;73
45113;BME280;30873;53.908;27.576;2022-11-15T05:24:47;1019.2;;;4.4;73.3
45113;BME280;30873;53.908;27.576;2022-11-15T05:29:08;1019.1;;;4.4;73.7
45113;BME280;30873;53.908;27.576;2022-11-15T05:34:49;1018.9;;;4.4;73.9
45113;BME280;30873;53.908;27.576;2022-11-15T05:39:19;1019;;;4.4;73.8
45113;BME280;30873;53.908;27.576;2022-11-15T05:44:37;1019;;;4.5;74
45113;BME280;30873;53.908;27.576;2022-11-15T05:49:35;1018.8;;;4.6;73.6
45113;BME280;30873;53.908;27.576;2022-11-15T05:54:09;1018.9;;;4.7;73.6
45113;BME280;30873;53.908;27.576;2022-11-15T05:59:31;1018.8;;;4.7;73.3
45113;BME280;30873;53.908;27.576;2022-11-15T06:04:49;1018.8;;;4.6;73.6
45113;BME280;30873;53.908;27.576;2022-11-15T06:09:33;1018.8;;;4.8;73.7
45113;BME280;30873;53.908;27.576;2022-11-15T06:14:23;1018.7;;;4.8;73.2
45113;BME280;30873;53.908;27.576;2022-11-15T06:18:59;1018.6;;;4.8;73.4
45113;BME280;30873;53.908;27.576;2022-11-15T06:24:19;1018.5;;;4.9;73.2
45113;BME280;30873;53.908;27.576;2022-11-15T06:29:43;1018.4;;;4.8;73.5
45113;BME280;30873;53.908;27.576;2022-11-15T06:34:19;1018.4;;;4.9;73.7
45113;BME280;30873;53.908;27.576;2022-11-15T06:39:45;1018.3;;;5;73.6
45113;BME280;30873;53.908;27.576;2022-11-15T06:44:21;1018.2;;;5.1;73.5
45113;BME280;30873;53.908;27.576;2022-11-15T06:49:45;1018.2;;;5.1;73.4
45113;BME280;30873;53.908;27.576;2022-11-15T06:54:17;1018.1;;;5;73.6
45113;BME280;30873;53.908;27.576;2022-11-15T06:59:31;1018.1;;;5.1;74.1
45113;BME280;30873;53.908;27.576;2022-11-15T07:04:33;1018.1;;;5.2;74.1
45113;BME280;30873;53.908;27.576;2022-11-15T07:09:09;1018;;;5.3;73.6
45113;BME280;30873;53.908;27.576;2022-11-15T07:14:45;1017.9;;;5.3;73.4
45113;BME280;30873;53.908;27.576;2022-11-15T07:19:45;1017.9;;;5.3;73.5
45113;BME280;30873;53.908;27.576;2022-11-15T07:24:31;1017.8;;;5.3;73.4
45113;BME280;30873;53.908;27.576;2022-11-15T07:29:21;1017.8;;;5.2;73.7
45113;BME280;30873;53.908;27.576;2022-11-15T07:33:57;1017.8;;;5.3;74.1
45113;BME280;30873;53.908;27.576;2022-11-15T07:39:33;1017.8;;;5.4;74.1
45113;BME280;30873;53.908;27.576;2022-11-15T07:44:45;1017.8;;;5.5;73.8
45113;BME280;30873;53.908;27.576;2022-11-15T07:49:21;1017.7;;;5.4;73.7
45113;BME280;30873;53.908;27.576;2022-11-15T07:54:49;1017.6;;;5.4;73.9
45113;BME280;30873;53.908;27.576;2022-11-15T07:58:59;1017.6;;;5.4;74.1
45113;BME280;30873;53.908;27.576;2022-11-15T08:04:43;1017.5;;;5.5;74.3
45113;BME280;30873;53.908;27.576;2022-11-15T08:08:59;1017.5;;;5.5;74.2
45113;BME280;30873;53.908;27.576;2022-11-15T08:14:31;1017.4;;;5.5;74.4
45113;BME280;30873;53.908;27.576;2022-11-15T08:19:33;1017.2;;;5.5;74.2
45113;BME280;30873;53.908;27.576;2022-11-15T08:24:13;1017.2;;;5.5;74.5
45113;BME280;30873;53.908;27.576;2022-11-15T08:29:47;1017.1;;;5.5;74.4
45113;BME280;30873;53.908;27.576;2022-11-15T08:34:47;1017;;;5.6;74.4
45113;BME280;30873;53.908;27.576;2022-11-15T08:39:31;1016.9;;;5.7;74.5
45113;BME280;30873;53.908;27.576;2022-11-15T08:44:21;1016.8;;;5.8;74.3
45113;BME280;30873;53.908;27.576;2022-11-15T08:48:59;1016.8;;;5.8;74.2
45113;BME280;30873;53.908;27.576;2022-11-15T08:54:19;1016.7;;;5.9;74.5
45113;BME280;30873;53.908;27.576;2022-11-15T08:59:43;1016.7;;;6;74.2
45113;BME280;30873;53.908;27.576;2022-11-15T09:04:15;1016.7;;;6;73.9
45113;BME280;30873;53.908;27.576;2022-11-15T09:09:45;1016.6;;;6;74.2
45113;BME280;30873;53.908;27.576;2022-11-15T09:13:59;1016.5;;;6;74.2
45113;BME280;30873;53.908;27.576;2022-11-15T09:19:45;1016.4;;;6;73.9
45113;BME280;30873;53.908;27.576;2022-11-15T09:24:23;1016.3;;;6;74.3
45113;BME280;30873;53.908;27.576;2022-11-15T09:29:33;1016.2;;;5.9;74.4
45113;BME280;30873;53.908;27.576;2022-11-15T09:34:33;1016.1;;;6;74.4
45113;BME280;30873;53.908;27.576;2022-11-15T09:38:59;1016.1;;;6;74.6
45113;BME280;30873;53.908;27.576;2022-11-15T09:44:38;1016;;;6.2;74.6
45113;BME280;30873;53.908;27.576;2022-11-15T09:49:50;1015.9;;;6.2;74.2
45113;BME280;30873;53.908;27.576;2022-11-15T09:54:30;1015.9;;;6.2;74.3
45113;BME280;30873;53.908;27.576;2022-11-15T09:59:17;1015.8;;;6.4;74.3
45113;BME280;30873;53.908;27.576;2022-11-15T10:04:09;1015.7;;;6.6;74.1
45113;BME280;30873;53.908;27.576;2022-11-15T10:09:33;1015.6;;;6.5;73.7
45113;BME280;30873;53.908;27.576;2022-11-15T10:14:45;1015.6;;;6.5;74.1
45113;BME280;30873;53.908;27.576;2022-11-15T10:19:09;1015.5;;;6.5;74.3
45113;BME280;30873;53.908;27.576;2022-11-15T10:24:45;1015.5;;;6.7;74.1
45113;BME280;30873;53.908;27.576;2022-11-15T10:28:57;1015.4;;;6.7;73.9
45113;BME280;30873;53.908;27.576;2022-11-15T10:34:47;1015.3;;;6.9;74
45113;BME280;30873;53.908;27.576;2022-11-15T10:39:19;1015.2;;;7;73.3
45113;BME280;30873;53.908;27.576;2022-11-15T10:44:36;1015.1;;;7.1;73.1
45113;BME280;30873;53.908;27.576;2022-11-15T10:49:31;1015;;;7.2;73
45113;BME280;30873;53.908;27.576;2022-11-15T10:54:22;1014.9;;;7.3;72.9
45113;BME280;30873;53.908;27.576;2022-11-15T10:59:45;1014.8;;;7.4;72.6
45113;BME280;30873;53.908;27.576;2022-11-15T11:04:49;1014.8;;;7.6;72.2
45113;BME280;30873;53.908;27.576;2022-11-15T11:09:31;1014.7;;;7.5;72.1
45113;BME280;30873;53.908;27.576;2022-11-15T11:14:21;1014.7;;;7.3;72.6
45113;BME280;30873;53.908;27.576;2022-11-15T11:19:02;1014.6;;;7.3;73
45113;BME280;30873;53.908;27.576;2022-11-15T11:24:19;1014.5;;;7.2;73
45113;BME280;30873;53.908;27.576;2022-11-15T11:29:49;1014.4;;;7.2;73.7
45113;BME280;30873;53.908;27.576;2022-11-15T11:34:19;1014.4;;;7.3;73.2
45113;BME280;30873;53.908;27.576;2022-11-15T11:39:50;1014.3;;;7.3;73.3
45113;BME280;30873;53.908;27.576;2022-11-15T11:44:02;1014.3;;;7.3;73.5
45113;BME280;30873;53.908;27.576;2022-11-15T11:49:08;1014.2;;;7.3;73.7
45113;BME280;30873;53.908;27.576;2022-11-15T11:54:20;1014.1;;;7.5;73.8
45113;BME280;30873;53.908;27.576;2022-11-15T11:59:36;1014;;;7.4;73.4
45113;BME280;30873;53.908;27.576;2022-11-15T12:04:27;1014;;;7.4;73.9
45113;BME280;30873;53.908;27.576;2022-11-15T12:09:00;1013.9;;;7.4;73.8
45113;BME280;30873;53.908;27.576;2022-11-15T12:14:22;1013.9;;;7.5;74.1
45113;BME280;30873;53.908;27.576;2022-11-15T12:19:33;1013.8;;;7.4;73.7
45113;BME280;30873;53.908;27.576;2022-11-15T12:24:51;1013.8;;;7.3;74.2
45113;BME280;30873;53.908;27.576;2022-11-15T12:29:23;1013.7;;;7.5;74.2
45113;BME280;30873;53.908;27.576;2022-11-15T12:34:00;1013.7;;;7.5;73.9
45113;BME280;30873;53.908;27.576;2022-11-15T12:39:00;1013.6;;;7.3;74
45113;BME280;30873;53.908;27.576;2022-11-15T12:45:03;1013.6;;;7.3;74.5
45113;BME280;30873;53.908;27.576;2022-11-15T12:49:00;1013.5;;;7.3;74.6
45113;BME280;30873;53.908;27.576;2022-11-15T12:55:00;1013.4;;;7.2;74.8
45113;BME280;30873;53.908;27.576;2022-11-15T12:58:57;1013.4;;;7.2;75.3
45113;BME280;30873;53.908;27.576;2022-11-15T13:04:07;1013.3;;;7.3;74.9
45113;BME280;30873;53.908;27.576;2022-11-15T13:09:51;1013.2;;;7.3;75
45113;BME280;30873;53.908;27.576;2022-11-15T13:14:50;1013.2;;;7.4;74.7
45113;BME280;30873;53.908;27.576;2022-11-15T13:19:35;1013.3;;;7.4;74.5
45113;BME280;30873;53.908;27.576;2022-11-15T13:24:12;1013.3;;;7.4;74.8
45113;BME280;30873;53.908;27.576;2022-11-15T13:29:15;1013.3;;;7.4;74.8
45113;BME280;30873;53.908;27.576;2022-11-15T13:34:48;1013.2;;;7.4;74.9
45113;BME280;30873;53.908;27.576;2022-11-15T13:39:47;1013.2;;;7.4;75.4
45113;BME280;30873;53.908;27.576;2022-11-15T13:44:24;1013.2;;;7.4;75.3
45113;BME280;30873;53.908;27.576;2022-11-15T13:49:00;1013.2;;;7.3;75.5
45113;BME280;30873;53.908;27.576;2022-11-15T13:54:13;1013.2;;;7.3;75.9
45113;BME280;30873;53.908;27.576;2022-11-15T13:59:48;1013.1;;;7.4;76.1
45113;BME280;30873;53.908;27.576;2022-11-15T14:04:38;1013.1;;;7.4;75.9
45113;BME280;30873;53.908;27.576;2022-11-15T14:09:38;1013.1;;;7.4;76.1
45113;BME280;30873;53.908;27.576;2022-11-15T14:14:20;1013.1;;;7.5;75.9
45113;BME280;30873;53.908;27.576;2022-11-15T14:19:10;1013;;;7.6;76
45113;BME280;30873;53.908;27.576;2022-11-15T14:24:18;1013;;;7.6;75.6
45113;BME280;30873;53.908;27.576;2022-11-15T14:29:37;1012.9;;;7.7;75.7
45113;BME280;30873;53.908;27.576;2022-11-15T14:34:11;1012.9;;;7.7;75.4
45113;BME280;30873;53.908;27.576;2022-11-15T14:39:09;1012.8;;;7.7;75.3
45113;BME280;30873;53.908;27.576;2022-11-15T14:43:59;1012.8;;;7.6;74.9
45113;BME280;30873;53.908;27.576;2022-11-15T14:49:49;1012.8;;;7.6;74.8
45113;BME280;30873;53.908;27.576;2022-11-15T14:54:49;1012.7;;;7.6;74.8
45113;BME280;30873;53.908;27.576;2022-11-15T14:59:21;1012.7;;;7.6;74.4
45113;BME280;30873;53.908;27.576;2022-11-15T15:04:19;1012.6;;;7.6;74.4
45113;BME280;30873;53.908;27.576;2022-11-15T15:08:59;1012.6;;;7.6;74.2
45113;BME280;30873;53.908;27.576;2022-11-15T15:14:47;1012.6;;;7.6;74.1
45113;BME280;30873;53.908;27.576;2022-11-15T15:19:09;1012.5;;;7.6;74.1
45113;BME280;30873;53.908;27.576;2022-11-15T15:24:35;1012.5;;;7.6;74.3
45113;BME280;30873;53.908;27.576;2022-11-15T15:29:07;1012.4;;;7.7;74.1
45113;BME280;30873;53.908;27.576;2022-11-15T15:34:19;1012.4;;;7.7;73.8
45113;BME280;30873;53.908;27.576;2022-11-15T15:39:08;1012.5;;;7.6;73.9
45113;BME280;30873;53.908;27.576;2022-11-15T15:44:37;1012.5;;;7.6;74
45113;BME280;30873;53.908;27.576;2022-11-15T15:49:33;1012.5;;;7.6;74.2
45113;BME280;30873;53.908;27.576;2022-11-15T15:54:07;1012.4;;;7.6;74.2
45113;BME280;30873;53.908;27.576;2022-11-15T15:59:07;1012.4;;;7.6;74
45113;BME280;30873;53.908;27.576;2022-11-15T16:04:31;1012.3;;;7.7;73.9
45113;BME280;30873;53.908;27.576;2022-11-15T16:09:18;1012.4;;;7.6;74
45113;BME280;30873;53.908;27.576;2022-11-15T16:14:49;1012.3;;;7.5;74.3
45113;BME280;30873;53.908;27.576;2022-11-15T16:19:23;1012.2;;;7.5;74.6
45113;BME280;30873;53.908;27.576;2022-11-15T16:23:59;1012.1;;;7.6;74.7
45113;BME280;30873;53.908;27.576;2022-11-15T16:29:17;1012.1;;;7.6;74.6
45113;BME280;30873;53.908;27.576;2022-11-15T16:34:49;1012;;;7.7;74.5
45113;BME280;30873;53.908;27.576;2022-11-15T16:39:49;1011.9;;;7.6;74.4
45113;BME280;30873;53.908;27.576;2022-11-15T16:44:49;1011.9;;;7.6;74.4
45113;BME280;30873;53.908;27.576;2022-11-15T16:49:10;1011.9;;;7.6;74.4
45113;BME280;30873;53.908;27.576;2022-11-15T16:54:35;1011.9;;;7.5;74.5
45113;BME280;30873;53.908;27.576;2022-11-15T16:59:29;1011.8;;;7.6;74.5
45113;BME280;30873;53.908;27.576;2022-11-15T17:04:37;1011.8;;;7.5;74.3
45113;BME280;30873;53.908;27.576;2022-11-15T17:09:35;1011.8;;;7.4;74.3
45113;BME280;30873;53.908;27.576;2022-11-15T17:14:09;1011.8;;;7.5;74.6
45113;BME280;30873;53.908;27.576;2022-11-15T17:19:31;1011.8;;;7.5;74.4
45113;BME280;30873;53.908;27.576;2022-11-15T17:24:09;1011.8;;;7.5;74.5
45113;BME280;30873;53.908;27.576;2022-11-15T17:29:49;1011.8;;;7.5;74.4
45113;BME280;30873;53.908;27.576;2022-11-15T17:34:37;1011.7;;;7.5;74.5
45113;BME280;30873;53.908;27.576;2022-11-15T17:38:59;1011.6;;;7.4;74.3
45113;BME280;30873;53.908;27.576;2022-11-15T17:44:09;1011.6;;;7.4;74.4
45113;BME280;30873;53.908;27.576;2022-11-15T17:49:50;1011.6;;;7.5;74.5
45113;BME280;30873;53.908;27.576;2022-11-15T17:54:49;1011.7;;;7.6;74.4
45113;BME280;30873;53.908;27.576;2022-11-15T17:59:45;1011.7;;;7.6;74.4
45113;BME280;30873;53.908;27.576;2022-11-15T18:03:58;1011.7;;;7.6;74.5
45113;BME280;30873;53.908;27.576;2022-11-15T18:09:35;1011.7;;;7.6;74.4
45113;BME280;30873;53.908;27.576;2022-11-15T18:14:34;1011.7;;;7.6;74.5
45113;BME280;30873;53.908;27.576;2022-11-15T18:19:13;1011.6;;;7.6;74.7
45113;BME280;30873;53.908;27.576;2022-11-15T18:24:49;1011.6;;;7.6;75
45113;BME280;30873;53.908;27.576;2022-11-15T18:29:07;1011.5;;;7.7;74.9
45113;BME280;30873;53.908;27.576;2022-11-15T18:34:33;1011.5;;;7.7;74.8
45113;BME280;30873;53.908;27.576;2022-11-15T18:39:19;1011.4;;;7.6;74.9
45113;BME280;30873;53.908;27.576;2022-11-15T18:44:49;1011.4;;;7.6;75
45113;BME280;30873;53.908;27.576;2022-11-15T18:49:23;1011.5;;;7.6;75.3
45113;BME280;30873;53.908;27.576;2022-11-15T18:54:10;1011.4;;;7.7;75.2
45113;BME280;30873;53.908;27.576;2022-11-15T18:59:33;1011.4;;;7.7;75.2
45113;BME280;30873;53.908;27.576;2022-11-15T19:04:45;1011.4;;;7.7;75.2
45113;BME280;30873;53.908;27.576;2022-11-15T19:09:49;1011.5;;;7.7;75.4
45113;BME280;30873;53.908;27.576;2022-11-15T19:14:37;1011.5;;;7.7;75.5
45113;BME280;30873;53.908;27.576;2022-11-15T19:19:00;1011.5;;;7.7;75.8
45113;BME280;30873;53.908;27.576;2022-11-15T19:24:45;1011.5;;;7.8;75.9
45113;BME280;30873;53.908;27.576;2022-11-15T19:29:21;1011.5;;;7.8;75.6
45113;BME280;30873;53.908;27.576;2022-11-15T19:34:23;1011.5;;;7.8;75.7
45113;BME280;30873;53.908;27.576;2022-11-15T19:39:51;1011.5;;;7.7;75.9
45113;BME280;30873;53.908;27.576;2022-11-15T19:44:10;1011.4;;;7.6;76.3
45113;BME280;30873;53.908;27.576;2022-11-15T19:49:33;1011.4;;;7.6;76.8
45113;BME280;30873;53.908;27.576;2022-11-15T19:54:19;1011.4;;;7.6;77.1
45113;BME280;30873;53.908;27.576;2022-11-15T19:59:47;1011.4;;;7.7;77
45113;BME280;30873;53.908;27.576;2022-11-15T20:04:23;1011.3;;;7.7;76.8
45113;BME280;30873;53.908;27.576;2022-11-15T20:09:35;1011.3;;;7.7;77
45113;BME280;30873;53.908;27.576;2022-11-15T20:14:21;1011.3;;;7.8;77
45113;BME280;30873;53.908;27.576;2022-11-15T20:19:49;1011.3;;;7.8;77
45113;BME280;30873;53.908;27.576;2022-11-15T20:24:19;1011.3;;;7.8;76.9
45113;BME280;30873;53.908;27.576;2022-11-15T20:29:51;1011.2;;;7.8;77
45113;BME280;30873;53.908;27.576;2022-11-15T20:33:59;1011.2;;;7.8;77
45113;BME280;30873;53.908;27.576;2022-11-15T20:39:37;1011.2;;;7.8;77.1
45113;BME280;30873;53.908;27.576;2022-11-15T20:44:33;1011.2;;;7.8;77
45113;BME280;30873;53.908;27.576;2022-11-15T20:49:35;1011.2;;;7.9;77
45113;BME280;30873;53.908;27.576;2022-11-15T20:54:51;1011.1;;;7.8;76.9
45113;BME280;30873;53.908;27.576;2022-11-15T20:58:57;1011.1;;;7.8;77
45113;BME280;30873;53.908;27.576;2022-11-15T21:04:49;1011.1;;;7.9;77
45113;BME280;30873;53.908;27.576;2022-11-15T21:09:21;1011.1;;;7.9;77
45113;BME280;30873;53.908;27.576;2022-11-15T21:14:33;1011.1;;;7.9;77
45113;BME280;30873;53.908;27.576;2022-11-15T21:19:09;1011.1;;;7.9;76.9
45113;BME280;30873;53.908;27.576;2022-11-15T21:24:09;1011.1;;;7.8;77
45113;BME280;30873;53.908;27.576;2022-11-15T21:29:17;1011.1;;;7.9;77.1
45113;BME280;30873;53.908;27.576;2022-11-15T21:34:36;1011.1;;;7.9;77.2
45113;BME280;30873;53.908;27.576;2022-11-15T21:39:19;1011.1;;;7.9;77.2
45113;BME280;30873;53.908;27.576;2022-11-15T21:44:49;1011.1;;;7.9;77.3
45113;BME280;30873;53.908;27.576;2022-11-15T21:49:09;1011;;;7.8;77.3
45113;BME280;30873;53.908;27.576;2022-11-15T21:54:49;1011;;;7.8;77.6
45113;BME280;30873;53.908;27.576;2022-11-15T21:59:29;1011;;;7.7;77.7
45113;BME280;30873;53.908;27.576;2022-11-15T22:04:15;1011;;;7.7;77.9
45113;BME280;30873;53.908;27.576;2022-11-15T22:09:45;1011;;;7.9;77.9
45113;BME280;30873;53.908;27.576;2022-11-15T22:13:57;1011;;;7.9;77.2
45113;BME280;30873;53.908;27.576;2022-11-15T22:19:45;1011;;;8;77.1
45113;BME280;30873;53.908;27.576;2022-11-15T22:24:15;1011;;;8;76.8
45113;BME280;30873;53.908;27.576;2022-11-15T22:29:27;1011;;;8;76.5
45113;BME280;30873;53.908;27.576;2022-11-15T22:34:13;1010.9;;;8;76.3
45113;BME280;30873;53.908;27.576;2022-11-15T22:38:59;1010.9;;;7.9;76.2
45113;BME280;30873;53.908;27.576;2022-11-15T22:44:15;1010.9;;;7.9;76.4
45113;BME280;30873;53.908;27.576;2022-11-15T22:49:33;1010.8;;;7.9;76.3
45113;BME280;30873;53.908;27.576;2022-11-15T22:54:15;1010.8;;;7.9;76.3
45113;BME280;30873;53.908;27.576;2022-11-15T22:59:45;1010.8;;;7.8;76.4
45113;BME280;30873;53.908;27.576;2022-11-15T23:03:59;1010.8;;;7.7;76.6
45113;BME280;30873;53.908;27.576;2022-11-15T23:09:33;1010.7;;;7.7;76.7
45113;BME280;30873;53.908;27.576;2022-11-15T23:14:29;1010.7;;;7.8;76.7
45113;BME280;30873;53.908;27.576;2022-11-15T23:19:33;1010.7;;;7.9;76.4
45113;BME280;30873;53.908;27.576;2022-11-15T23:24:45;1010.7;;;7.8;76.4
45113;BME280;30873;53.908;27.576;2022-11-15T23:29:04;1010.7;;;7.9;76.4
45113;BME280;30873;53.908;27.576;2022-11-15T23:34:45;1010.7;;;7.9;76.3
45113;BME280;30873;53.908;27.576;2022-11-15T23:39:15;1010.7;;;7.9;76
45113;BME280;30873;53.908;27.576;2022-11-15T23:44:31;1010.7;;;7.9;76
45113;BME280;30873;53.908;27.576;2022-11-15T23:49:19;1010.7;;;7.9;76.1
45113;BME280;30873;53.908;27.576;2022-11-15T23:53:59;1010.8;;;7.9;76.3
45113;BME280;30873;53.908;27.576;2022-11-15T23:58:57;1010.7;;;7.9;76.3
